Time;durP1;ratioP1;P1;durP2;ratioP2;P2;SDS_P1;SDS_P2;PMS_P1;PMS_P2;Temp;Humidity;BMP_temperature;BMP_pressure;BME280_temperature;BME280_humidity;BME280_pressure;Samples;Min_cycle;Max_cycle;Signal;HPM_P1;HPM_P2
2024/01/12 00:01:29;;;;;;;56.97;18.98;;;;;;;;;;5095949;28;20105;-79
2024/01/12 00:03:55;;;;;;;55.85;19.67;;;;;;;;;;5077258;28;20073;-79
2024/01/12 00:06:21;;;;;;;56.33;18.85;;;;;;;;;;5095210;28;20040;-81
2024/01/12 00:08:47;;;;;;;59.00;19.38;;;;;;;;;;5093315;28;20400;-80
2024/01/12 00:11:13;;;;;;;55.70;19.45;;;;;;;;;;5094536;28;20157;-80
2024/01/12 00:13:39;;;;;;;58.80;20.25;;;;;;;;;;5094355;28;20074;-80
2024/01/12 00:16:06;;;;;;;58.42;19.13;;;;;;;;;;5093184;28;20483;-79
2024/01/12 00:18:32;;;;;;;52.40;18.92;;;;;;;;;;5094197;28;20044;-81
2024/01/12 00:20:58;;;;;;;59.08;19.75;;;;;;;;;;5094160;28;20060;-81
2024/01/12 00:23:25;;;;;;;51.55;18.08;;;;;;;;;;5076768;28;20055;-81
2024/01/12 00:25:51;;;;;;;59.28;18.85;;;;;;;;;;5094174;28;20072;-80
2024/01/12 00:28:17;;;;;;;53.17;18.80;;;;;;;;;;5092844;28;20108;-81
2024/01/12 00:30:45;;;;;;;51.42;19.70;;;;;;;;;;5094060;28;20122;-79
2024/01/12 00:33:12;;;;;;;47.13;18.27;;;;;;;;;;5093413;28;20079;-80
2024/01/12 00:35:38;;;;;;;55.38;18.83;;;;;;;;;;5076455;28;20549;-79
2024/01/12 00:38:04;;;;;;;55.72;19.15;;;;;;;;;;5093555;28;20089;-81
2024/01/12 00:40:30;;;;;;;58.33;19.98;;;;;;;;;;5093842;28;20070;-80
2024/01/12 00:42:56;;;;;;;50.22;17.88;;;;;;;;;;5092730;28;20082;-80
2024/01/12 00:45:22;;;;;;;53.45;19.63;;;;;;;;;;5093902;28;20047;-81
2024/01/12 00:47:49;;;;;;;56.20;19.25;;;;;;;;;;5093752;28;20384;-80
2024/01/12 00:50:15;;;;;;;57.10;19.52;;;;;;;;;;5092667;28;20044;-80
2024/01/12 00:52:41;;;;;;;57.42;18.98;;;;;;;;;;5093826;28;20048;-81
2024/01/12 00:55:07;;;;;;;50.42;18.25;;;;;;;;;;5093838;28;20048;-80
2024/01/12 00:57:36;;;;;;;51.38;18.45;;;;;;;;;;5093939;28;20411;-80
2024/01/12 01:00:04;;;;;;;50.83;18.58;;;;;;;;;;5092710;28;20391;-81
2024/01/12 01:02:30;;;;;;;52.15;17.80;;;;;;;;;;5093688;28;20129;-80
2024/01/12 01:04:56;;;;;;;52.28;18.33;;;;;;;;;;5076019;28;20113;-80
2024/01/12 01:07:22;;;;;;;49.58;18.38;;;;;;;;;;5092403;28;20047;-79
2024/01/12 01:09:48;;;;;;;54.47;18.05;;;;;;;;;;5092781;28;20139;-81
2024/01/12 01:12:15;;;;;;;51.45;17.98;;;;;;;;;;5093030;28;20059;-80
2024/01/12 01:14:41;;;;;;;55.30;19.27;;;;;;;;;;5094220;28;20048;-80
2024/01/12 01:17:07;;;;;;;50.30;18.63;;;;;;;;;;5095151;28;20468;-80
2024/01/12 01:19:35;;;;;;;46.45;17.42;;;;;;;;;;5076106;28;20079;-80
2024/01/12 01:22:01;;;;;;;52.08;18.38;;;;;;;;;;5093297;28;20139;-79
2024/01/12 01:24:29;;;;;;;44.20;17.05;;;;;;;;;;5092897;28;20052;-79
2024/01/12 01:26:55;;;;;;;44.85;15.18;;;;;;;;;;5093605;28;20059;-79
2024/01/12 01:29:21;;;;;;;49.47;17.20;;;;;;;;;;5093426;28;20438;-79
2024/01/12 01:31:48;;;;;;;43.15;16.67;;;;;;;;;;5092222;28;20052;-80
2024/01/12 01:34:15;;;;;;;49.40;16.20;;;;;;;;;;5075633;28;20056;-79
2024/01/12 01:36:41;;;;;;;41.83;15.77;;;;;;;;;;5092338;28;20044;-84
2024/01/12 01:39:07;;;;;;;49.00;15.23;;;;;;;;;;5092467;28;20044;-80
2024/01/12 01:41:33;;;;;;;44.15;15.40;;;;;;;;;;5075482;28;20044;-81
2024/01/12 01:43:59;;;;;;;43.50;13.45;;;;;;;;;;5092045;28;20138;-81
2024/01/12 01:46:25;;;;;;;37.15;12.70;;;;;;;;;;5093233;28;20036;-80
2024/01/12 01:48:52;;;;;;;31.90;10.75;;;;;;;;;;5092588;28;20048;-81
2024/01/12 01:51:18;;;;;;;35.63;11.80;;;;;;;;;;5093192;28;20094;-80
2024/01/12 01:53:44;;;;;;;36.75;11.38;;;;;;;;;;5093378;28;20040;-82
2024/01/12 01:56:11;;;;;;;34.22;11.18;;;;;;;;;;5075571;28;20059;-79
2024/01/12 01:58:37;;;;;;;34.97;10.90;;;;;;;;;;5093984;28;20083;-79
2024/01/12 02:01:03;;;;;;;34.67;10.32;;;;;;;;;;5095563;28;20043;-80
2024/01/12 02:03:30;;;;;;;27.27;9.98;;;;;;;;;;5095996;28;20502;-79
2024/01/12 02:05:56;;;;;;;25.88;9.00;;;;;;;;;;5096004;28;20048;-78
2024/01/12 02:08:22;;;;;;;32.88;9.65;;;;;;;;;;5095597;28;20165;-80
2024/01/12 02:10:52;;;;;;;29.50;9.05;;;;;;;;;;5097080;28;20055;-80
2024/01/12 02:13:18;;;;;;;25.95;8.63;;;;;;;;;;5095371;28;20087;-80
2024/01/12 02:15:44;;;;;;;28.07;9.00;;;;;;;;;;5095514;28;20044;-79
2024/01/12 02:18:10;;;;;;;25.85;8.05;;;;;;;;;;5078738;28;20306;-79
2024/01/12 02:20:38;;;;;;;24.25;7.22;;;;;;;;;;5096162;28;20051;-78
2024/01/12 02:23:04;;;;;;;;;;;;;;;;;;5097718;28;20044;-81
2024/01/12 02:25:30;;;;;;;29.52;8.13;;;;;;;;;;5096321;28;19926;-79
2024/01/12 02:27:56;;;;;;;31.48;7.53;;;;;;;;;;5078686;28;20475;-80
2024/01/12 02:30:22;;;;;;;28.85;6.95;;;;;;;;;;5094904;28;20044;-79
2024/01/12 02:32:48;;;;;;;21.90;7.13;;;;;;;;;;5095090;28;20083;-79
2024/01/12 02:35:14;;;;;;;22.33;7.50;;;;;;;;;;5097012;28;20408;-80
2024/01/12 02:37:41;;;;;;;30.17;7.53;;;;;;;;;;5094801;28;20109;-79
2024/01/12 02:40:07;;;;;;;17.42;6.47;;;;;;;;;;5095880;28;20443;-79
2024/01/12 02:42:33;;;;;;;24.52;7.35;;;;;;;;;;5094845;28;20131;-79
2024/01/12 02:44:59;;;;;;;27.73;7.10;;;;;;;;;;5095233;28;20051;-79
2024/01/12 02:47:25;;;;;;;18.55;6.88;;;;;;;;;;5095867;28;20040;-80
2024/01/12 02:49:51;;;;;;;21.52;6.47;;;;;;;;;;5094848;28;20480;-79
2024/01/12 02:52:17;;;;;;;25.13;6.55;;;;;;;;;;5096633;28;20043;-79
2024/01/12 02:54:43;;;;;;;28.70;6.30;;;;;;;;;;5077990;28;20055;-80
2024/01/12 02:57:09;;;;;;;23.45;5.78;;;;;;;;;;5077839;28;20150;-78
2024/01/12 02:59:35;;;;;;;18.08;6.05;;;;;;;;;;5094783;28;20059;-80
2024/01/12 03:02:01;;;;;;;18.67;5.10;;;;;;;;;;5096681;28;20044;-79
2024/01/12 03:04:27;;;;;;;15.18;5.32;;;;;;;;;;5095555;28;20437;-79
2024/01/12 03:06:54;;;;;;;16.92;4.57;;;;;;;;;;5095601;28;20044;-77
2024/01/12 03:09:20;;;;;;;16.40;4.50;;;;;;;;;;5095588;28;20051;-77
2024/01/12 03:11:46;;;;;;;18.08;4.50;;;;;;;;;;5095636;28;20048;-80
2024/01/12 03:14:12;;;;;;;16.02;4.10;;;;;;;;;;5096362;28;20051;-79
2024/01/12 03:16:38;;;;;;;21.88;4.72;;;;;;;;;;5095056;28;20446;-79
2024/01/12 03:19:05;;;;;;;13.85;4.63;;;;;;;;;;5094628;28;20553;-79
2024/01/12 03:25:05;;;;;;;20.75;4.90;;;;;;;;;;5085564;28;20001;-79
2024/01/12 03:31:00;;;;;;;19.27;4.85;;;;;;;;;;5095428;28;20434;-79
2024/01/12 03:33:26;;;;;;;16.10;4.45;;;;;;;;;;5096139;28;20052;-80
2024/01/12 03:35:52;;;;;;;15.25;3.95;;;;;;;;;;5077605;28;20051;-78
2024/01/12 03:38:18;;;;;;;16.90;4.03;;;;;;;;;;5093742;28;20056;-79
2024/01/12 03:40:44;;;;;;;16.23;4.20;;;;;;;;;;5095819;28;20052;-79
2024/01/12 03:46:33;;;;;;;17.35;3.88;;;;;;;;;;5115732;28;20042;-79
2024/01/12 03:48:59;;;;;;;14.73;3.58;;;;;;;;;;5115823;28;20051;-80
2024/01/12 03:51:25;;;;;;;14.93;3.70;;;;;;;;;;5097538;28;20055;-80
2024/01/12 03:53:51;;;;;;;16.58;4.25;;;;;;;;;;5115468;28;20134;-79
2024/01/12 03:56:17;;;;;;;12.38;3.60;;;;;;;;;;5116479;28;20378;-77
2024/01/12 03:58:44;;;;;;;11.68;3.97;;;;;;;;;;5097428;28;20051;-80
2024/01/12 04:01:10;;;;;;;15.30;3.60;;;;;;;;;;5096997;28;20044;-78
2024/01/12 04:03:36;;;;;;;16.38;3.95;;;;;;;;;;5080997;28;20051;-78
2024/01/12 04:06:10;;;;;;;14.95;3.53;;;;;;;;;;5115506;28;20096;-78
2024/01/12 04:12:00;;;;;;;19.73;4.30;;;;;;;;;;5115049;28;20030;-79
2024/01/12 04:14:27;;;;;;;18.52;3.55;;;;;;;;;;5096404;28;20043;-79
2024/01/12 04:16:53;;;;;;;15.98;3.63;;;;;;;;;;5079566;28;20103;-79
2024/01/12 04:19:19;;;;;;;13.82;3.55;;;;;;;;;;5114575;28;20052;-78
2024/01/12 04:21:45;;;;;;;12.88;3.75;;;;;;;;;;5096208;28;20051;-78
2024/01/12 04:30:50;;;;;;;15.63;4.00;;;;;;;;;;5114651;28;20047;-78
2024/01/12 04:33:16;;;;;;;17.35;4.63;;;;;;;;;;5080315;28;20055;-78
2024/01/12 04:39:05;;;;;;;15.70;3.85;;;;;;;;;;5114628;28;20054;-78
2024/01/12 04:44:54;;;;;;;14.25;3.70;;;;;;;;;;5114076;28;20058;-79
2024/01/12 04:50:42;;;;;;;13.68;3.85;;;;;;;;;;5114028;28;20036;-79
2024/01/12 04:56:31;;;;;;;12.65;3.78;;;;;;;;;;5114150;28;20127;-80
2024/01/12 04:58:57;;;;;;;15.48;3.72;;;;;;;;;;5095838;28;20050;-79
2024/01/12 05:01:23;;;;;;;15.52;4.00;;;;;;;;;;5079340;28;20496;-78
2024/01/12 05:07:17;;;;;;;12.98;3.38;;;;;;;;;;5113859;28;20058;-79
2024/01/12 05:09:43;;;;;;;15.88;4.38;;;;;;;;;;5096057;28;20051;-79
2024/01/12 05:12:09;;;;;;;14.52;3.72;;;;;;;;;;5114656;28;20043;-79
2024/01/12 05:14:35;;;;;;;15.25;4.03;;;;;;;;;;5113918;28;20471;-80
2024/01/12 05:17:02;;;;;;;9.85;3.58;;;;;;;;;;5096688;28;20363;-79
2024/01/12 05:19:28;;;;;;;15.13;4.13;;;;;;;;;;5113984;28;20052;-80
2024/01/12 05:21:54;;;;;;;10.73;3.55;;;;;;;;;;5079347;28;20055;-79
2024/01/12 05:24:20;;;;;;;11.23;3.65;;;;;;;;;;5095881;28;20499;-78
2024/01/12 05:26:46;;;;;;;14.88;4.32;;;;;;;;;;5113937;28;20051;-79
2024/01/12 05:29:14;;;;;;;13.18;4.05;;;;;;;;;;5095583;28;20047;-80
2024/01/12 05:31:42;;;;;;;19.45;4.13;;;;;;;;;;5096008;28;20482;-79
2024/01/12 05:34:08;;;;;;;13.60;3.92;;;;;;;;;;5098075;28;20051;-78
2024/01/12 05:36:34;;;;;;;20.17;4.38;;;;;;;;;;5100457;28;20047;-79
2024/01/12 05:39:06;;;;;;;15.18;4.65;;;;;;;;;;5099713;28;20051;-78
2024/01/12 05:41:32;;;;;;;15.35;4.57;;;;;;;;;;5118208;28;20050;-79
2024/01/12 05:43:59;;;;;;;15.63;4.23;;;;;;;;;;5117814;28;20472;-79
2024/01/12 05:46:25;;;;;;;11.00;4.55;;;;;;;;;;5117579;28;20046;-79
2024/01/12 05:48:51;;;;;;;16.98;4.35;;;;;;;;;;5099469;28;20433;-79
2024/01/12 05:51:17;;;;;;;16.77;4.57;;;;;;;;;;5118020;28;20085;-79
2024/01/12 05:53:44;;;;;;;20.13;4.68;;;;;;;;;;5082673;28;20126;-79
2024/01/12 05:56:10;;;;;;;16.08;4.32;;;;;;;;;;5117652;28;20436;-78
2024/01/12 05:58:36;;;;;;;14.90;3.67;;;;;;;;;;5117252;28;20048;-79
2024/01/12 06:01:02;;;;;;;13.15;3.88;;;;;;;;;;5100043;28;20357;-79
2024/01/12 06:03:29;;;;;;;20.37;4.43;;;;;;;;;;5098997;28;20047;-80
2024/01/12 06:05:58;;;;;;;15.80;4.68;;;;;;;;;;5117135;28;20134;-79
2024/01/12 06:08:24;;;;;;;21.05;4.85;;;;;;;;;;5098934;28;20052;-83
2024/01/12 06:10:51;;;;;;;19.98;4.18;;;;;;;;;;5099391;28;20044;-79
2024/01/12 06:13:17;;;;;;;16.97;4.00;;;;;;;;;;5100543;28;20387;-80
2024/01/12 06:15:43;;;;;;;15.65;4.15;;;;;;;;;;5100825;28;20040;-81
2024/01/12 06:18:09;;;;;;;14.40;4.40;;;;;;;;;;5117126;28;20039;-79
2024/01/12 06:20:36;;;;;;;14.50;4.10;;;;;;;;;;5099324;28;20047;-81
2024/01/12 06:23:02;;;;;;;16.90;3.75;;;;;;;;;;5098910;28;20447;-80
2024/01/12 06:25:29;;;;;;;11.18;3.53;;;;;;;;;;5098188;28;20389;-80
2024/01/12 06:27:55;;;;;;;11.52;4.25;;;;;;;;;;5116603;28;20047;-78
2024/01/12 06:30:21;;;;;;;13.75;3.95;;;;;;;;;;5098468;28;20139;-79
2024/01/12 06:32:47;;;;;;;18.85;3.65;;;;;;;;;;5098596;28;20388;-79
2024/01/12 06:35:14;;;;;;;14.52;3.80;;;;;;;;;;5081913;28;20044;-79
2024/01/12 06:37:40;;;;;;;18.25;4.00;;;;;;;;;;5098992;28;20097;-78
2024/01/12 06:40:06;;;;;;;17.05;4.10;;;;;;;;;;5116774;28;20101;-80
2024/01/12 06:42:32;;;;;;;13.93;4.40;;;;;;;;;;5081215;28;20084;-81
2024/01/12 06:44:59;;;;;;;11.60;3.92;;;;;;;;;;5098603;28;20047;-81
2024/01/12 06:47:25;;;;;;;11.40;3.50;;;;;;;;;;5098084;28;20091;-80
2024/01/12 06:49:51;;;;;;;12.98;3.22;;;;;;;;;;5115876;28;20460;-81
2024/01/12 06:52:17;;;;;;;13.98;3.83;;;;;;;;;;5116226;28;20058;-79
2024/01/12 06:54:44;;;;;;;15.68;4.07;;;;;;;;;;5116118;28;20079;-79
2024/01/12 06:57:10;;;;;;;12.67;3.43;;;;;;;;;;5081060;28;20040;-79
2024/01/12 06:59:36;;;;;;;20.40;4.10;;;;;;;;;;5116342;28;20445;-78
2024/01/12 07:02:03;;;;;;;28.70;4.65;;;;;;;;;;5116198;28;20070;-79
2024/01/12 07:04:29;;;;;;;13.05;4.50;;;;;;;;;;5098767;28;20448;-78
2024/01/12 07:06:55;;;;;;;14.70;4.35;;;;;;;;;;5081298;28;20092;-77
2024/01/12 07:09:21;;;;;;;18.75;5.63;;;;;;;;;;5115959;28;20047;-78
2024/01/12 07:11:48;;;;;;;16.05;5.00;;;;;;;;;;5115783;28;20491;-79
2024/01/12 07:14:15;;;;;;;17.38;5.03;;;;;;;;;;5115476;28;20492;-79
2024/01/12 07:16:41;;;;;;;14.45;5.43;;;;;;;;;;5096859;28;20044;-79
2024/01/12 07:19:07;;;;;;;15.47;5.10;;;;;;;;;;5115688;28;20514;-79
2024/01/12 07:21:34;;;;;;;18.88;5.20;;;;;;;;;;5115381;28;20043;-79
2024/01/12 07:24:00;;;;;;;16.33;5.47;;;;;;;;;;5115437;28;20062;-79
2024/01/12 07:26:26;;;;;;;21.58;5.55;;;;;;;;;;5081276;28;20728;-79
2024/01/12 07:28:52;;;;;;;19.75;5.75;;;;;;;;;;5081021;28;20166;-78
2024/01/12 07:31:19;;;;;;;16.38;6.07;;;;;;;;;;5098139;28;20051;-78
2024/01/12 07:33:45;;;;;;;18.08;5.60;;;;;;;;;;5097977;28;20100;-79
2024/01/12 07:36:11;;;;;;;23.83;5.65;;;;;;;;;;5115054;28;20039;-78
2024/01/12 07:38:37;;;;;;;19.67;5.40;;;;;;;;;;5098658;28;20131;-78
2024/01/12 07:41:03;;;;;;;29.42;6.45;;;;;;;;;;5096964;28;20046;-78
2024/01/12 07:43:33;;;;;;;18.13;5.63;;;;;;;;;;5114951;28;20048;-80
2024/01/12 07:45:59;;;;;;;20.80;5.47;;;;;;;;;;5115504;28;20387;-79
2024/01/12 07:48:25;;;;;;;20.63;5.88;;;;;;;;;;5115611;28;20039;-78
2024/01/12 07:50:51;;;;;;;15.57;5.93;;;;;;;;;;5097417;28;20047;-79
2024/01/12 07:53:17;;;;;;;20.10;5.97;;;;;;;;;;5097051;28;20051;-79
2024/01/12 07:55:44;;;;;;;18.75;6.30;;;;;;;;;;5114220;28;20046;-77
2024/01/12 07:58:10;;;;;;;17.67;6.13;;;;;;;;;;5096869;28;20126;-79
2024/01/12 08:00:36;;;;;;;14.40;5.28;;;;;;;;;;5115180;28;20053;-78
2024/01/12 08:03:02;;;;;;;17.80;6.13;;;;;;;;;;5080207;28;20043;-79
2024/01/12 08:05:28;;;;;;;19.25;6.25;;;;;;;;;;5097166;28;20076;-79
2024/01/12 08:07:55;;;;;;;13.77;6.10;;;;;;;;;;5080803;28;20052;-79
2024/01/12 08:10:21;;;;;;;16.50;5.80;;;;;;;;;;5096812;28;20058;-79
2024/01/12 08:12:48;;;;;;;21.63;6.22;;;;;;;;;;5114800;28;20044;-79
2024/01/12 08:15:14;;;;;;;15.48;5.32;;;;;;;;;;5114718;28;20054;-79
2024/01/12 08:17:41;;;;;;;18.10;6.35;;;;;;;;;;5080029;28;20399;-79
2024/01/12 08:20:07;;;;;;;19.60;5.57;;;;;;;;;;5115978;28;20455;-80
2024/01/12 08:22:33;;;;;;;23.80;6.80;;;;;;;;;;5115390;28;20184;-78
2024/01/12 08:25:00;;;;;;;14.55;5.68;;;;;;;;;;5096069;28;20062;-78
2024/01/12 08:27:26;;;;;;;22.70;6.27;;;;;;;;;;5097079;28;20043;-79
2024/01/12 08:29:52;;;;;;;17.52;5.40;;;;;;;;;;5096401;28;20075;-79
2024/01/12 08:32:18;;;;;;;17.65;6.32;;;;;;;;;;5114301;28;20050;-79
2024/01/12 08:34:44;;;;;;;19.02;5.95;;;;;;;;;;5096378;28;20475;-79
2024/01/12 08:37:11;;;;;;;16.75;5.40;;;;;;;;;;5114192;28;20039;-78
2024/01/12 08:39:37;;;;;;;19.90;5.72;;;;;;;;;;5114011;28;20046;-78
2024/01/12 08:42:03;;;;;;;19.65;5.80;;;;;;;;;;5079161;28;20047;-78
2024/01/12 08:44:29;;;;;;;19.85;6.10;;;;;;;;;;5113896;28;20509;-79
2024/01/12 08:46:55;;;;;;;17.00;5.50;;;;;;;;;;5079458;28;20051;-77
2024/01/12 08:49:21;;;;;;;17.35;5.50;;;;;;;;;;5096525;28;20435;-79
2024/01/12 08:51:51;;;;;;;15.98;5.53;;;;;;;;;;5096049;28;20511;-79
2024/01/12 08:54:17;;;;;;;19.02;5.80;;;;;;;;;;5096700;28;20083;-78
2024/01/12 08:56:43;;;;;;;21.27;6.05;;;;;;;;;;5096391;28;20126;-78
2024/01/12 08:59:10;;;;;;;20.95;5.78;;;;;;;;;;5113862;28;20043;-78
2024/01/12 09:01:36;;;;;;;19.83;5.47;;;;;;;;;;5113999;28;20132;-78
2024/01/12 09:04:02;;;;;;;17.47;5.60;;;;;;;;;;5113807;28;20054;-78
2024/01/12 09:06:29;;;;;;;17.00;5.40;;;;;;;;;;5114558;28;20274;-78
2024/01/12 09:08:55;;;;;;;15.60;5.25;;;;;;;;;;5098134;28;20105;-78
2024/01/12 09:11:22;;;;;;;18.65;5.75;;;;;;;;;;5118913;28;20048;-78
2024/01/12 09:13:48;;;;;;;20.03;5.47;;;;;;;;;;5100683;28;20164;-79
2024/01/12 09:16:15;;;;;;;15.15;5.22;;;;;;;;;;5100156;28;20096;-79
2024/01/12 09:18:43;;;;;;;19.88;5.50;;;;;;;;;;5100246;28;20054;-78
2024/01/12 09:21:09;;;;;;;19.98;5.40;;;;;;;;;;5099358;28;20043;-78
2024/01/12 09:23:35;;;;;;;16.27;5.18;;;;;;;;;;5100117;28;20044;-79
2024/01/12 09:26:01;;;;;;;18.17;5.18;;;;;;;;;;5118481;28;20086;-78
2024/01/12 09:28:27;;;;;;;24.35;5.20;;;;;;;;;;5099127;28;20083;-80
2024/01/12 09:30:54;;;;;;;18.03;5.60;;;;;;;;;;5117869;28;20086;-77
2024/01/12 09:33:20;;;;;;;20.83;5.82;;;;;;;;;;5117876;28;20082;-79
2024/01/12 09:35:46;;;;;;;20.60;5.75;;;;;;;;;;5118692;28;20048;-78
2024/01/12 09:38:12;;;;;;;15.38;5.05;;;;;;;;;;5118820;28;20428;-79
2024/01/12 09:40:38;;;;;;;17.20;5.15;;;;;;;;;;5118426;28;20376;-78
2024/01/12 09:43:07;;;;;;;13.38;4.93;;;;;;;;;;5099227;28;20036;-77
2024/01/12 09:45:37;;;;;;;18.25;5.60;;;;;;;;;;5117593;28;20100;-79
2024/01/12 09:48:03;;;;;;;18.35;5.22;;;;;;;;;;5099337;28;20495;-77
2024/01/12 09:50:30;;;;;;;14.98;5.10;;;;;;;;;;5100168;28;20039;-78
2024/01/12 09:52:56;;;;;;;18.33;5.32;;;;;;;;;;5117408;28;20051;-80
2024/01/12 09:55:22;;;;;;;20.02;5.53;;;;;;;;;;5099246;28;20395;-78
2024/01/12 09:57:48;;;;;;;13.32;4.40;;;;;;;;;;5100246;28;20047;-79
2024/01/12 10:00:14;;;;;;;13.10;5.53;;;;;;;;;;5082755;28;20050;-78
2024/01/12 10:02:41;;;;;;;27.90;6.20;;;;;;;;;;5117421;28;20043;-79
2024/01/12 10:05:07;;;;;;;17.42;5.65;;;;;;;;;;5117192;28;20058;-78
2024/01/12 10:07:33;;;;;;;19.58;5.22;;;;;;;;;;5099822;28;20095;-77
2024/01/12 10:10:00;;;;;;;15.90;5.00;;;;;;;;;;5082067;28;20047;-79
2024/01/12 10:12:26;;;;;;;21.80;5.63;;;;;;;;;;5098328;28;20555;-79
2024/01/12 10:15:01;;;;;;;18.63;5.55;;;;;;;;;;5099240;28;20040;-79
2024/01/12 10:17:28;;;;;;;17.90;5.43;;;;;;;;;;5117060;28;20493;-79
2024/01/12 10:19:55;;;;;;;16.25;5.05;;;;;;;;;;5116445;28;20047;-78
2024/01/12 10:22:21;;;;;;;20.98;5.82;;;;;;;;;;5099482;28;20108;-79
2024/01/12 10:24:56;;;;;;;16.50;5.85;;;;;;;;;;5116591;28;20055;-78
2024/01/12 10:27:22;;;;;;;22.85;5.72;;;;;;;;;;5098634;28;20398;-78
2024/01/12 10:29:48;;;;;;;18.05;5.28;;;;;;;;;;5098825;28;20051;-78
2024/01/12 10:32:18;;;;;;;17.17;6.13;;;;;;;;;;5116329;28;20047;-78
2024/01/12 10:34:44;;;;;;;15.75;4.90;;;;;;;;;;5098485;28;20399;-78
2024/01/12 10:37:11;;;;;;;17.92;5.80;;;;;;;;;;5098940;28;20096;-79
2024/01/12 10:39:38;;;;;;;15.80;5.40;;;;;;;;;;5116377;28;20044;-79
2024/01/12 10:42:07;;;;;;;15.77;5.32;;;;;;;;;;5081061;28;20134;-79
2024/01/12 10:44:36;;;;;;;17.80;4.70;;;;;;;;;;5098088;28;20110;-79
2024/01/12 10:47:04;;;;;;;22.35;5.38;;;;;;;;;;5116927;28;20046;-78
2024/01/12 10:49:35;;;;;;;18.20;4.80;;;;;;;;;;5097935;28;20044;-79
2024/01/12 10:52:07;;;;;;;12.15;5.05;;;;;;;;;;5081501;28;20051;-78
2024/01/12 10:54:51;;;;;;;17.13;5.35;;;;;;;;;;5116232;28;20051;-80
2024/01/12 10:57:18;;;;;;;19.35;5.35;;;;;;;;;;5097989;28;20130;-80
2024/01/12 10:59:44;;;;;;;21.90;4.47;;;;;;;;;;5115809;28;20539;-80
2024/01/12 11:02:13;;;;;;;18.38;5.53;;;;;;;;;;5098311;28;20135;-80
2024/01/12 11:04:40;;;;;;;19.42;4.50;;;;;;;;;;5081082;28;20093;-79
2024/01/12 11:07:06;;;;;;;21.17;5.18;;;;;;;;;;5116141;28;20040;-78
2024/01/12 11:09:33;;;;;;;19.27;4.57;;;;;;;;;;5097543;28;20052;-79
2024/01/12 11:12:10;;;;;;;12.90;3.42;;;;;;;;;;5097598;28;20052;-79
2024/01/12 11:14:37;;;;;;;15.77;3.70;;;;;;;;;;5098502;28;20099;-79
2024/01/12 11:17:08;;;;;;;20.20;2.75;;;;;;;;;;5097623;28;20039;-79
2024/01/12 11:19:34;;;;;;;22.40;3.15;;;;;;;;;;5116821;28;20108;-79
2024/01/12 11:22:06;;;;;;;16.02;3.10;;;;;;;;;;5097721;28;20052;-79
2024/01/12 11:24:32;;;;;;;16.77;3.65;;;;;;;;;;5115458;28;20182;-80
2024/01/12 11:26:59;;;;;;;18.38;2.90;;;;;;;;;;5098283;28;20503;-80
2024/01/12 11:29:32;;;;;;;19.02;3.08;;;;;;;;;;5115357;28;20415;-79
2024/01/12 11:32:02;;;;;;;15.57;2.30;;;;;;;;;;5096291;28;20092;-79
2024/01/12 11:34:35;;;;;;;16.23;3.20;;;;;;;;;;5080354;28;20140;-79
2024/01/12 11:37:02;;;;;;;14.63;2.35;;;;;;;;;;5096998;28;20050;-79
2024/01/12 11:39:36;;;;;;;19.13;2.28;;;;;;;;;;5115091;28;20403;-80
2024/01/12 11:42:03;;;;;;;19.17;1.85;;;;;;;;;;5115170;28;20051;-79
2024/01/12 11:44:29;;;;;;;10.35;1.50;;;;;;;;;;5115955;28;20043;-80
2024/01/12 11:46:55;;;;;;;16.50;3.10;;;;;;;;;;5097754;28;20047;-78
2024/01/12 11:49:23;;;;;;;15.40;2.42;;;;;;;;;;5097144;28;20079;-79
2024/01/12 11:51:49;;;;;;;16.55;2.70;;;;;;;;;;5080596;28;20134;-80
2024/01/12 11:54:15;;;;;;;13.70;2.58;;;;;;;;;;5097090;28;20070;-79
2024/01/12 11:56:42;;;;;;;13.18;2.20;;;;;;;;;;5096822;28;20044;-79
2024/01/12 11:59:08;;;;;;;14.88;1.88;;;;;;;;;;5116277;28;20040;-78
2024/01/12 12:01:34;;;;;;;17.92;1.70;;;;;;;;;;5080542;28;20424;-79
2024/01/12 12:04:01;;;;;;;16.20;2.65;;;;;;;;;;5115447;28;20096;-79
2024/01/12 12:06:27;;;;;;;20.38;2.85;;;;;;;;;;5097105;28;20487;-78
2024/01/12 12:08:55;;;;;;;17.98;1.92;;;;;;;;;;5080339;28;20044;-80
2024/01/12 12:11:21;;;;;;;13.45;2.17;;;;;;;;;;5115588;28;20122;-80
2024/01/12 12:13:48;;;;;;;17.25;2.08;;;;;;;;;;5115974;28;20094;-79
2024/01/12 12:16:17;;;;;;;16.92;1.45;;;;;;;;;;5098208;28;20063;-78
2024/01/12 12:18:43;;;;;;;17.15;2.78;;;;;;;;;;5099198;28;20055;-78
2024/01/12 12:21:11;;;;;;;;;;;;;;;;;;5098598;28;20067;-77
2024/01/12 12:23:41;;;;;;;20.58;1.88;;;;;;;;;;5113941;28;19924;-78
2024/01/12 12:26:08;;;;;;;11.20;1.25;;;;;;;;;;5114971;28;20062;-79
2024/01/12 12:28:34;;;;;;;25.13;2.47;;;;;;;;;;5080440;28;20046;-79
2024/01/12 12:31:01;;;;;;;14.32;1.70;;;;;;;;;;5097965;28;20044;-80
2024/01/12 12:33:28;;;;;;;14.52;1.83;;;;;;;;;;5097130;28;20047;-79
2024/01/12 12:36:07;;;;;;;16.42;3.05;;;;;;;;;;5098367;28;20464;-80
2024/01/12 12:38:34;;;;;;;18.20;2.50;;;;;;;;;;5114838;28;20047;-79
2024/01/12 12:41:00;;;;;;;16.07;2.70;;;;;;;;;;5098557;28;20087;-80
2024/01/12 12:43:27;;;;;;;17.55;3.00;;;;;;;;;;5097207;28;20089;-79
2024/01/12 12:45:53;;;;;;;;;;;;;;;;;;5080952;28;20051;-78
2024/01/12 12:48:19;;;;;;;25.92;3.65;;;;;;;;;;5115984;28;19926;-80
2024/01/12 12:50:45;;;;;;;18.08;1.95;;;;;;;;;;5079811;28;20486;-79
2024/01/12 12:53:11;;;;;;;12.60;1.70;;;;;;;;;;5081705;28;20051;-78
2024/01/12 12:55:38;;;;;;;13.90;1.88;;;;;;;;;;5081313;28;20051;-79
2024/01/12 12:58:04;;;;;;;15.97;2.07;;;;;;;;;;5115583;28;20043;-79
2024/01/12 13:00:30;;;;;;;10.60;2.10;;;;;;;;;;5115161;28;20073;-80
2024/01/12 13:02:56;;;;;;;21.95;2.28;;;;;;;;;;5097809;28;20047;-80
2024/01/12 13:05:23;;;;;;;14.30;1.73;;;;;;;;;;5080365;28;20047;-79
2024/01/12 13:07:49;;;;;;;18.20;2.15;;;;;;;;;;5115613;28;20040;-79
2024/01/12 13:10:15;;;;;;;17.85;1.90;;;;;;;;;;5114281;28;20035;-80
2024/01/12 13:12:41;;;;;;;13.32;2.10;;;;;;;;;;5095966;28;20058;-79
2024/01/12 13:15:08;;;;;;;21.35;1.92;;;;;;;;;;5079896;28;20062;-79
2024/01/12 13:17:35;;;;;;;15.15;1.90;;;;;;;;;;5097213;28;20387;-80
2024/01/12 13:20:03;;;;;;;15.85;2.22;;;;;;;;;;5114626;28;20519;-79
2024/01/12 13:22:29;;;;;;;18.08;1.98;;;;;;;;;;5096739;28;20144;-79
2024/01/12 13:24:59;;;;;;;16.98;2.72;;;;;;;;;;5095757;28;20056;-79
2024/01/12 13:27:25;;;;;;;20.95;2.90;;;;;;;;;;5080445;28;20078;-80
2024/01/12 13:29:51;;;;;;;15.63;1.83;;;;;;;;;;5095879;28;20105;-80
2024/01/12 13:32:17;;;;;;;17.17;1.77;;;;;;;;;;5114527;28;20483;-79
2024/01/12 13:34:44;;;;;;;16.77;2.25;;;;;;;;;;5096692;28;20056;-80
2024/01/12 13:37:10;;;;;;;18.23;2.42;;;;;;;;;;5115026;28;20039;-79
2024/01/12 13:39:36;;;;;;;8.68;1.73;;;;;;;;;;5114497;28;20044;-80
2024/01/12 13:42:02;;;;;;;17.15;1.70;;;;;;;;;;5079789;28;20077;-79
2024/01/12 13:44:28;;;;;;;11.50;1.45;;;;;;;;;;5097376;28;20044;-79
2024/01/12 13:46:54;;;;;;;19.60;2.20;;;;;;;;;;5080136;28;20109;-79
2024/01/12 13:49:21;;;;;;;13.98;2.30;;;;;;;;;;5114839;28;20079;-81
2024/01/12 13:51:47;;;;;;;17.30;3.25;;;;;;;;;;5079644;28;20100;-80
2024/01/12 13:54:14;;;;;;;25.88;4.50;;;;;;;;;;5096682;28;20131;-81
2024/01/12 13:56:40;;;;;;;20.15;3.38;;;;;;;;;;5083023;28;20047;-80
2024/01/12 13:59:06;;;;;;;25.95;4.13;;;;;;;;;;5082572;28;20047;-79
2024/01/12 14:01:36;;;;;;;12.25;2.70;;;;;;;;;;5099667;28;20040;-80
2024/01/12 14:04:05;;;;;;;13.77;2.22;;;;;;;;;;5118280;28;20441;-80
2024/01/12 14:06:34;;;;;;;16.60;2.28;;;;;;;;;;5082266;28;20043;-80
2024/01/12 14:09:02;;;;;;;19.98;2.70;;;;;;;;;;5099289;28;20502;-79
2024/01/12 14:11:29;;;;;;;16.40;2.28;;;;;;;;;;5117671;28;20399;-80
2024/01/12 14:13:56;;;;;;;17.70;2.63;;;;;;;;;;5081990;28;20039;-79
2024/01/12 14:16:22;;;;;;;;;;;;;;;;;;5099368;28;20126;-79
2024/01/12 14:18:48;;;;;;;17.45;2.85;;;;;;;;;;5099506;28;20014;-79
2024/01/12 14:21:14;;;;;;;23.38;2.83;;;;;;;;;;5117019;28;20039;-78
2024/01/12 14:23:40;;;;;;;15.98;2.17;;;;;;;;;;5098724;28;20505;-80
2024/01/12 14:26:07;;;;;;;19.33;2.58;;;;;;;;;;5081492;28;20134;-79
2024/01/12 14:28:34;;;;;;;16.02;2.10;;;;;;;;;;5098750;28;20061;-78
2024/01/12 14:31:01;;;;;;;13.32;2.40;;;;;;;;;;5081820;28;20143;-78
2024/01/12 14:33:29;;;;;;;10.18;1.58;;;;;;;;;;5098986;28;20087;-77
2024/01/12 14:35:55;;;;;;;17.52;1.83;;;;;;;;;;5098253;28;20054;-78
2024/01/12 14:38:22;;;;;;;15.30;2.70;;;;;;;;;;5080965;28;20071;-78
2024/01/12 14:40:48;;;;;;;14.13;2.28;;;;;;;;;;5116190;28;20052;-77
2024/01/12 14:43:14;;;;;;;17.55;3.35;;;;;;;;;;5098559;28;20048;-77
2024/01/12 14:45:40;;;;;;;20.42;3.35;;;;;;;;;;5099258;28;20054;-77
2024/01/12 14:48:06;;;;;;;19.17;3.22;;;;;;;;;;5116301;28;20035;-78
2024/01/12 14:50:32;;;;;;;22.30;3.67;;;;;;;;;;5116355;28;20047;-77
2024/01/12 14:52:58;;;;;;;16.80;2.10;;;;;;;;;;5098136;28;20109;-78
2024/01/12 14:55:24;;;;;;;13.57;2.10;;;;;;;;;;5116668;28;20078;-77
2024/01/12 14:57:50;;;;;;;23.10;2.40;;;;;;;;;;5116405;28;20118;-77
2024/01/12 15:00:17;;;;;;;21.55;2.72;;;;;;;;;;5098667;28;20406;-77
2024/01/12 15:02:43;;;;;;;16.30;2.60;;;;;;;;;;5097825;28;20039;-77